Airport Name : Gimhae Intl

Other Name : Busan

ICAO : RKPK

IATA : PUS

FAA :

Latitude : 35.179528

Longitude : 128.938222

Country : South Korea

Local Date and Time : 04 Dec 2020 23:25

 

TAF (Terminal Aerodrome Forecast)

TAF RKPK 041100Z 0412/0518 33006KT CAVOK TNM01/0421Z TX10/0506Z

 

METAR (METeorological Aerodrome Report)

RKPK 041400Z 33008KT CAVOK 03/M11 Q1028

RKPK 041300Z 33005KT CAVOK 02/M11 Q1028

RKPK 041200Z 34001KT CAVOK 02/M12 Q1028 NOSIG

RKPK 041100Z 33003KT CAVOK 04/M14 Q1027

To Charter a Jet Click here.